createdAt,value
2022-08-28T00:16:13.446Z,22.90
2022-08-28T00:27:43.452Z,22.90
2022-08-28T00:30:13.436Z,22.90
2022-08-28T00:32:44.397Z,22.90
2022-08-28T00:35:12.844Z,23.50
2022-08-28T00:37:40.509Z,22.80
2022-08-28T00:40:09.346Z,22.80
2022-08-28T00:42:38.570Z,22.80
2022-08-28T00:45:07.482Z,22.80
2022-08-28T00:56:23.607Z,22.30
2022-08-28T01:00:11.520Z,22.80
2022-08-28T01:03:52.510Z,22.80
2022-08-28T01:06:45.221Z,22.30
2022-08-28T01:12:45.865Z,23.20
2022-08-28T01:16:29.280Z,22.40
2022-08-28T01:43:17.013Z,23.00
2022-08-28T01:54:03.142Z,23.10
2022-08-28T01:56:53.893Z,23.40
2022-08-28T02:04:09.842Z,22.90
2022-08-28T02:11:17.783Z,23.10
2022-08-28T02:18:56.338Z,23.10
2022-08-28T02:21:49.880Z,23.10
2022-08-28T02:24:18.123Z,23.10
2022-08-28T02:26:45.914Z,23.20
2022-08-28T02:29:14.094Z,23.10
2022-08-28T02:31:42.952Z,23.20
2022-08-28T02:34:11.470Z,23.10
2022-08-28T02:36:42.965Z,23.40
2022-08-28T02:39:14.537Z,23.10
2022-08-28T02:43:15.576Z,23.10
2022-08-28T02:46:43.857Z,23.00
2022-08-28T02:50:25.904Z,23.40
2022-08-28T03:09:22.700Z,22.90
2022-08-28T03:16:54.182Z,22.90
2022-08-28T07:52:41.424Z,25.00
2022-08-28T07:55:40.428Z,25.80
2022-08-28T07:58:25.006Z,26.00
2022-08-28T08:08:28.573Z,27.20
2022-08-28T08:11:00.839Z,27.60
2022-08-28T08:13:32.301Z,28.10
2022-08-28T08:16:22.095Z,28.40
2022-08-28T08:18:50.444Z,28.90
2022-08-28T08:21:20.400Z,29.40
2022-08-28T08:23:50.634Z,30.50
2022-08-28T08:26:22.206Z,30.20
2022-08-28T08:29:04.463Z,30.50
2022-08-28T08:31:45.782Z,30.80
2022-08-28T08:34:23.545Z,31.00
2022-08-28T08:37:02.722Z,31.20
2022-08-28T08:39:31.784Z,31.30
2022-08-28T08:42:04.616Z,31.30
2022-08-28T08:44:37.762Z,31.20
2022-08-28T08:47:27.656Z,31.30
2022-08-28T08:49:58.881Z,31.30
2022-08-28T08:53:12.341Z,31.70
2022-08-28T08:55:52.457Z,32.00
2022-08-28T08:58:28.510Z,32.20
2022-08-28T09:01:23.497Z,32.30
2022-08-28T09:04:09.997Z,32.60
2022-08-28T09:07:25.896Z,32.40
2022-08-28T09:10:07.390Z,33.20
2022-08-28T09:12:50.048Z,33.60
2022-08-28T09:15:38.471Z,34.10
2022-08-28T09:18:18.698Z,34.20
2022-08-28T09:20:51.680Z,34.10
2022-08-28T09:23:21.804Z,34.20
2022-08-28T09:25:55.471Z,34.30
2022-08-28T09:28:36.138Z,34.50
2022-08-28T09:31:09.043Z,34.60
2022-08-28T09:33:36.725Z,34.90
2022-08-28T09:36:23.473Z,34.90
2022-08-28T09:39:13.083Z,34.90
2022-08-28T09:42:25.804Z,34.70
2022-08-28T09:45:16.511Z,34.70
2022-08-28T09:47:55.448Z,34.60
2022-08-28T09:50:27.568Z,34.40
2022-08-28T09:53:14.466Z,34.00
2022-08-28T09:55:57.815Z,33.60
2022-08-28T09:58:39.177Z,33.30
2022-08-28T10:01:23.185Z,33.00
2022-08-28T10:04:01.381Z,32.80
2022-08-28T10:06:33.806Z,32.60
2022-08-28T10:09:16.046Z,32.40
2022-08-28T10:12:05.273Z,32.20
2022-08-28T10:14:51.202Z,31.90
2022-08-28T10:17:44.671Z,31.50
2022-08-28T10:20:31.241Z,31.40
2022-08-28T10:23:24.646Z,30.90
2022-08-28T10:26:14.560Z,30.60
2022-08-28T10:29:06.383Z,30.50
2022-08-28T10:31:45.254Z,30.50
2022-08-28T10:34:31.506Z,30.60
2022-08-28T10:37:12.483Z,30.40
2022-08-28T10:39:49.348Z,30.30
2022-08-28T10:42:36.270Z,30.10
2022-08-28T10:45:13.925Z,30.00
2022-08-28T10:47:45.777Z,29.90
2022-08-28T10:50:30.011Z,29.80
2022-08-28T10:53:06.210Z,29.70
2022-08-28T10:55:45.486Z,29.80
2022-08-28T10:58:24.523Z,29.30
2022-08-28T11:01:01.662Z,29.20
2022-08-28T11:03:41.809Z,29.40
2022-08-28T11:06:34.531Z,29.10
2022-08-28T11:09:25.446Z,29.20
2022-08-28T11:12:01.974Z,29.20
2022-08-28T11:14:47.094Z,29.40
2022-08-28T11:17:22.603Z,29.40
2022-08-28T11:20:20.941Z,29.40
2022-08-28T11:23:25.067Z,29.30
2022-08-28T11:26:02.018Z,29.30
2022-08-28T11:28:35.750Z,29.90
2022-08-28T11:31:06.327Z,29.50
2022-08-28T11:33:42.758Z,29.20
2022-08-28T11:36:33.072Z,29.00
2022-08-28T11:39:05.025Z,28.90
2022-08-28T11:41:36.420Z,29.00
2022-08-28T11:44:10.835Z,29.00
2022-08-28T11:49:51.706Z,28.90
2022-08-28T11:52:25.396Z,28.80
2022-08-28T11:55:12.535Z,29.40
2022-08-28T11:57:55.148Z,28.80
2022-08-28T12:00:50.311Z,28.70
2022-08-28T12:03:38.833Z,28.70
2022-08-28T12:06:25.649Z,28.70
2022-08-28T12:09:09.597Z,28.90
2022-08-28T12:11:39.562Z,29.00
2022-08-28T12:14:26.383Z,29.00
2022-08-28T12:16:59.952Z,29.10
2022-08-28T12:19:57.884Z,29.10
2022-08-28T12:22:39.886Z,29.10
2022-08-28T12:25:32.846Z,29.10
2022-08-28T12:28:17.209Z,29.20
2022-08-28T12:31:07.003Z,29.30
2022-08-28T12:33:59.364Z,29.30
2022-08-28T12:36:28.558Z,28.80
2022-08-28T12:38:58.338Z,29.60
2022-08-28T12:41:27.007Z,29.20
2022-08-28T12:43:58.378Z,29.10
2022-08-28T12:46:32.643Z,29.10
2022-08-28T12:49:02.670Z,29.10
2022-08-28T12:51:33.599Z,29.20
2022-08-28T12:54:11.933Z,29.20
2022-08-28T12:56:42.701Z,29.20
2022-08-28T12:59:41.560Z,29.20
2022-08-28T13:02:35.808Z,29.20
2022-08-28T13:05:10.441Z,29.20
2022-08-28T13:07:47.974Z,29.20
2022-08-28T13:10:24.490Z,29.20
2022-08-28T13:13:10.715Z,29.20
2022-08-28T13:15:56.943Z,29.20
2022-08-28T13:18:39.574Z,29.20
2022-08-28T13:21:24.605Z,29.30
2022-08-28T13:24:22.179Z,29.20
2022-08-28T13:26:59.126Z,29.30
2022-08-28T13:29:27.151Z,29.30
2022-08-28T13:31:59.613Z,29.20
2022-08-28T13:34:33.954Z,29.20
2022-08-28T13:37:30.703Z,29.20
2022-08-28T13:39:58.113Z,29.70
2022-08-28T13:42:25.540Z,29.10
2022-08-28T13:44:56.614Z,29.20
2022-08-28T13:47:25.234Z,29.20
2022-08-28T13:49:53.057Z,29.20
2022-08-28T13:52:37.084Z,29.20
2022-08-28T13:55:14.482Z,29.20
2022-08-28T13:57:51.283Z,29.20
2022-08-28T14:00:24.206Z,29.60
2022-08-28T14:03:12.826Z,29.10
2022-08-28T14:05:40.465Z,29.10
2022-08-28T14:08:07.863Z,29.10
2022-08-28T14:10:35.918Z,29.00
2022-08-28T14:13:03.254Z,29.10
2022-08-28T14:15:30.725Z,29.10
2022-08-28T14:17:58.070Z,29.10
2022-08-28T14:20:25.586Z,29.20
2022-08-28T14:22:53.428Z,29.20
2022-08-28T14:25:23.341Z,29.20
2022-08-28T14:27:50.959Z,29.60
2022-08-28T14:30:20.807Z,29.30
2022-08-28T14:32:48.297Z,29.30
2022-08-28T14:35:15.920Z,29.40
2022-08-28T14:37:43.449Z,29.40
2022-08-28T14:40:14.473Z,29.50
2022-08-28T14:42:48.547Z,29.50
2022-08-28T14:45:18.634Z,29.50
2022-08-28T14:47:53.127Z,29.60
2022-08-28T14:50:20.703Z,29.60
2022-08-28T14:52:50.688Z,29.60
2022-08-28T14:55:18.818Z,29.60
2022-08-28T14:57:54.098Z,29.50
2022-08-28T15:00:25.391Z,29.40
2022-08-28T15:03:14.878Z,29.50
2022-08-28T15:06:14.322Z,29.80
2022-08-28T15:08:54.377Z,30.00
2022-08-28T15:11:44.831Z,29.50
2022-08-28T15:14:20.999Z,29.50
2022-08-28T15:16:54.140Z,29.50
2022-08-28T15:19:42.436Z,29.60
2022-08-28T15:22:27.305Z,29.60
2022-08-28T15:24:55.560Z,29.40
2022-08-28T15:27:23.773Z,29.70
2022-08-28T15:29:51.249Z,29.60
2022-08-28T15:32:25.820Z,29.70
2022-08-28T15:35:02.480Z,29.60
2022-08-28T15:37:32.538Z,29.60
2022-08-28T15:40:18.719Z,29.60
2022-08-28T15:42:46.251Z,29.60
2022-08-28T15:45:42.331Z,29.60
2022-08-28T15:48:17.305Z,29.60
2022-08-28T15:50:54.601Z,29.50
2022-08-28T15:53:30.619Z,29.50
2022-08-28T15:56:21.769Z,29.50
2022-08-28T15:59:04.586Z,29.50
2022-08-28T16:01:38.384Z,29.50
2022-08-28T16:05:00.449Z,29.40
2022-08-28T16:07:58.204Z,29.40
2022-08-28T16:10:33.297Z,29.40
2022-08-28T16:13:11.250Z,29.40
2022-08-28T16:15:40.887Z,29.40
2022-08-28T16:18:16.814Z,29.30
2022-08-28T16:20:45.506Z,29.30
2022-08-28T16:23:13.669Z,29.30
2022-08-28T16:25:43.264Z,29.20
2022-08-28T16:28:16.052Z,29.20
2022-08-28T16:31:19.073Z,29.20
2022-08-28T16:34:08.529Z,29.10
2022-08-28T16:36:42.045Z,29.10
2022-08-28T16:39:11.526Z,29.10
2022-08-28T16:41:42.126Z,29.10
2022-08-28T16:44:38.982Z,29.10
2022-08-28T16:47:31.712Z,29.00
2022-08-28T16:50:00.399Z,29.00
2022-08-28T16:52:27.960Z,29.30
2022-08-28T16:54:55.392Z,29.00
2022-08-28T16:57:23.725Z,29.00
2022-08-28T16:59:53.167Z,29.00
2022-08-28T17:02:25.357Z,28.90
2022-08-28T17:04:55.908Z,28.90
2022-08-28T17:07:23.420Z,28.80
2022-08-28T17:09:50.886Z,28.90
2022-08-28T17:12:18.453Z,28.80
2022-08-28T17:15:06.335Z,28.70
2022-08-28T17:17:53.826Z,28.70
2022-08-28T17:20:40.633Z,29.30
2022-08-28T17:23:08.117Z,28.60
2022-08-28T17:25:35.602Z,28.60
2022-08-28T17:28:03.353Z,28.60
2022-08-28T17:30:30.709Z,28.60
2022-08-28T17:32:59.449Z,28.60
2022-08-28T17:35:29.983Z,28.60
2022-08-28T17:37:58.418Z,28.50
2022-08-28T17:40:26.369Z,28.50
2022-08-28T17:42:53.796Z,28.40
2022-08-28T17:45:21.303Z,29.00
2022-08-28T17:47:49.140Z,28.40
2022-08-28T17:50:16.836Z,28.50
2022-08-28T17:52:50.647Z,28.30
2022-08-28T17:55:28.616Z,28.70
2022-08-28T17:58:21.148Z,28.30
2022-08-28T18:00:53.062Z,28.20
2022-08-28T18:03:20.584Z,28.20
2022-08-28T18:09:06.777Z,28.10
2022-08-28T18:12:35.905Z,27.90
2022-08-28T18:15:48.049Z,27.90
2022-08-28T18:18:36.349Z,28.20
2022-08-28T18:21:14.228Z,27.80
2022-08-28T18:23:43.575Z,27.80
2022-08-28T18:26:12.179Z,27.80
2022-08-28T18:29:10.582Z,27.90
2022-08-28T18:31:51.975Z,27.50
2022-08-28T18:34:34.756Z,27.70
2022-08-28T18:37:04.855Z,27.20
2022-08-28T18:39:35.810Z,27.20
2022-08-28T18:42:53.479Z,27.40
2022-08-28T19:01:47.654Z,26.10
2022-08-28T19:04:15.226Z,26.60
2022-08-28T19:06:42.654Z,27.00
2022-08-28T19:09:19.238Z,26.50
2022-08-28T19:11:48.491Z,26.40
2022-08-28T19:14:17.075Z,26.40
2022-08-28T19:16:44.775Z,26.30
2022-08-28T19:19:12.575Z,26.20
2022-08-28T19:21:40.074Z,26.30
2022-08-28T19:24:07.810Z,26.70
2022-08-28T19:26:36.910Z,26.30
2022-08-28T19:29:06.348Z,26.40
2022-08-28T19:31:36.583Z,25.90
2022-08-28T19:34:04.608Z,25.90
2022-08-28T19:36:32.308Z,25.80
2022-08-28T19:39:00.886Z,25.80
2022-08-28T19:41:29.579Z,26.20
2022-08-28T19:43:57.087Z,26.20
2022-08-28T19:46:24.950Z,25.60
2022-08-28T19:48:53.776Z,25.60
2022-08-28T20:02:09.732Z,25.40
2022-08-28T20:05:49.841Z,25.60
2022-08-28T20:16:49.908Z,25.10
2022-08-28T20:32:58.646Z,24.50
2022-08-28T20:35:28.988Z,24.80
2022-08-28T20:37:56.777Z,24.20
2022-08-28T20:40:24.346Z,24.60
2022-08-28T20:42:51.799Z,24.50
2022-08-28T20:45:20.048Z,24.50
2022-08-28T20:47:47.504Z,24.70
2022-08-28T20:50:15.668Z,24.40
2022-08-28T20:52:43.054Z,24.30
2022-08-28T20:55:13.057Z,24.20
2022-08-28T20:57:40.574Z,24.60
2022-08-28T21:00:22.356Z,24.20
2022-08-28T21:02:57.642Z,24.10
2022-08-28T21:05:25.457Z,24.10
2022-08-28T21:07:52.897Z,24.00
2022-08-28T21:10:20.342Z,24.20
2022-08-28T21:12:47.734Z,24.00
2022-08-28T21:15:15.884Z,23.90
2022-08-28T21:17:43.342Z,23.90
2022-08-28T21:20:14.243Z,23.90
2022-08-28T21:22:41.714Z,23.80
2022-08-28T21:25:10.555Z,24.10
2022-08-28T21:27:38.170Z,23.70
2022-08-28T21:30:07.198Z,23.70
2022-08-28T21:32:36.074Z,23.70
2022-08-28T21:35:09.149Z,23.60
2022-08-28T21:37:36.863Z,23.60
2022-08-28T21:40:07.535Z,24.00
2022-08-28T21:42:35.391Z,23.60
2022-08-28T21:45:07.228Z,23.60
2022-08-28T21:47:38.046Z,23.60
2022-08-28T21:50:06.198Z,23.60
2022-08-28T21:52:34.303Z,23.60
2022-08-28T21:55:08.952Z,23.60
2022-08-28T21:57:36.814Z,23.50
2022-08-28T22:00:17.258Z,23.50
2022-08-28T22:02:46.492Z,23.40
2022-08-28T22:05:14.426Z,23.40
2022-08-28T22:07:41.887Z,23.30
2022-08-28T22:10:09.782Z,23.60
2022-08-28T22:12:37.393Z,23.30
2022-08-28T22:15:06.287Z,23.20
2022-08-28T22:17:33.674Z,23.20
2022-08-28T22:20:01.239Z,23.10
2022-08-28T22:22:47.234Z,23.10
2022-08-28T22:25:14.744Z,23.00
2022-08-28T22:27:42.171Z,22.90
2022-08-28T22:30:10.021Z,22.80
2022-08-28T22:32:38.086Z,22.80
2022-08-28T22:35:06.013Z,22.70
2022-08-28T22:37:35.781Z,22.70
2022-08-28T22:40:04.565Z,22.60
2022-08-28T22:42:40.501Z,22.50
2022-08-28T22:45:09.504Z,22.40
2022-08-28T22:47:36.987Z,22.40
2022-08-28T22:50:05.285Z,22.30
2022-08-28T22:52:32.822Z,22.30
2022-08-28T22:55:00.295Z,22.30
2022-08-28T22:57:27.937Z,22.30
2022-08-28T22:59:55.285Z,22.50
2022-08-28T23:02:22.774Z,22.40
2022-08-28T23:04:54.970Z,22.60
2022-08-28T23:07:22.377Z,22.20
2022-08-28T23:09:49.746Z,22.40
2022-08-28T23:12:17.166Z,22.30
2022-08-28T23:14:48.363Z,22.50
2022-08-28T23:17:17.492Z,22.20
2022-08-28T23:19:48.156Z,22.20
2022-08-28T23:22:15.846Z,22.40
2022-08-28T23:24:43.388Z,22.30
2022-08-28T23:27:34.679Z,22.30
2022-08-28T23:29:58.168Z,22.00
2022-08-28T23:32:26.075Z,22.10
2022-08-28T23:34:53.445Z,22.30
2022-08-28T23:37:20.903Z,21.90
2022-08-28T23:39:50.025Z,21.90
2022-08-28T23:42:18.407Z,21.80
2022-08-28T23:44:51.657Z,22.20
2022-08-28T23:47:19.346Z,21.70
2022-08-28T23:49:47.031Z,21.90
2022-08-28T23:52:14.599Z,21.70
2022-08-28T23:54:41.983Z,21.70
2022-08-28T23:57:11.063Z,21.70
2022-08-28T23:59:38.968Z,21.40
